Latest Weather Observations for PORTABLE QFRG NR

IDQ60801

Issued at 10:52 pm EST Thursday 6 October 2022 (issued every 10 minutes, with the page automatically refreshed every 10 minutes)

About weather observations | Map of weather stations | Latest weather observations for QLD | Other Formats
Station Details ID: 250061 Name: PORTABLE QFRG Lat: -20.51 Lon: 147.62 Height: 106.0 m

Portable automatic weather stations (PAWS) are operated by other organisations, such as Fire and Emergency Services, and are included here by agreement. Portable stations may be deployed to a location for a short period and their location may be subject to change without notice. Wind observations from these stations are provided from heights of either three (3) or ten (10) metres above ground level (AGL).

Data from the previous 72 hours. | See also: Recent months for locations in Queensland
Date/Time
EST
Temp
°C
App
Temp
°C
Dew
Point
°C
Rel
Hum
%
Delta-T
°C
Wind Press
QNH
hPa
Press
MSL
hPa
Rain since
9am
mm
Dir  Spd
km/h
Gust
km/h
Spd
kts
Gust
kts
06/10:40pm 21.7 23.7 15.9 69 3.5 CALM 0 0 0 0 - - 0.0
06/10:30pm 21.6 23.6 15.9 70 3.4 CALM 0 0 0 0 - - 0.0
06/10:20pm 21.5 23.5 15.9 70 3.4 CALM 0 0 0 0 - - 0.0
06/10:10pm 21.7 23.3 15.9 69 3.5 S 2 4 1 2 - - 0.0
06/10:00pm 21.7 22.9 15.9 69 3.5 SW 4 4 2 2 - - 0.0
06/09:50pm 21.9 23.1 15.8 68 3.7 SSW 4 4 2 2 - - 0.0
06/09:40pm 22.1 22.9 15.9 68 3.7 SW 6 9 3 5 - - 0.0
06/09:30pm 22.3 22.6 15.9 67 3.9 SSW 9 13 5 7 - - 0.0
06/09:20pm 22.5 22.8 16.0 66 3.9 SSW 9 11 5 6 - - 0.0
06/09:10pm 22.9 22.8 16.0 65 4.2 SSW 11 15 6 8 - - 0.0
06/09:00pm 23.2 22.3 15.9 63 4.4 SW 15 17 8 9 - - 0.0
06/08:50pm 23.3 22.8 15.9 63 4.5 SW 13 15 7 8 - - 0.0
06/08:40pm 23.4 23.3 16.1 63 4.4 SW 11 13 6 7 - - 0.0
06/08:30pm 23.6 23.5 16.0 62 4.6 WSW 11 15 6 8 - - 0.0
06/08:20pm 23.7 23.6 15.9 61 4.7 SW 11 13 6 7 - - 0.0
06/08:10pm 23.8 23.6 15.8 61 4.9 SW 11 13 6 7 - - 0.0
06/08:00pm 23.8 23.9 15.5 59 5.0 SW 9 11 5 6 - - 0.0
06/07:50pm 23.6 24.0 15.3 59 5.0 SW 7 9 4 5 - - 0.0
06/07:40pm 24.0 24.4 15.2 58 5.3 WSW 7 7 4 4 - - 0.0
06/07:30pm 24.3 24.6 15.1 56 5.5 WSW 7 9 4 5 - - 0.0
06/07:20pm 24.8 24.4 15.1 54 5.8 SSW 11 13 6 7 - - 0.0
06/07:10pm 25.1 24.6 15.0 53 6.1 SSW 11 13 6 7 - - 0.0
06/07:00pm 25.2 24.7 14.9 52 6.2 SSW 11 11 6 6 - - 0.0
06/06:50pm 25.7 24.9 15.0 51 6.5 SW 13 15 7 8 - - 0.0
06/06:40pm 25.9 24.6 14.8 50 6.7 SW 15 17 8 9 - - 0.0
06/06:30pm 26.2 24.9 14.8 49 6.9 SW 15 17 8 9 - - 0.0
06/06:20pm 26.7 24.6 14.7 47 7.2 SW 19 20 10 11 - - 0.0
06/06:10pm 27.0 24.9 14.7 47 7.4 SW 19 22 10 12 - - 0.0
06/06:00pm 27.4 25.6 14.5 45 7.8 SSW 17 19 9 10 - - 0.0
06/05:50pm 27.8 26.1 14.6 44 8.0 SSW 17 20 9 11 - - 0.0
06/05:40pm 28.3 26.6 14.7 43 8.3 SW 17 20 9 11 - - 0.0
06/05:30pm 28.7 26.6 14.6 42 8.6 SW 19 22 10 12 - - 0.0
06/05:20pm 28.8 26.7 14.7 42 8.6 SW 19 20 10 11 - - 0.0
06/05:10pm 28.9 26.8 14.6 41 8.7 SW 19 22 10 12 - - 0.0
06/05:00pm 29.1 26.4 14.5 41 8.9 SSW 22 24 12 13 - - 0.0
06/04:50pm 29.7 27.3 14.4 39 9.3 SSW 20 22 11 12 - - 0.0
06/04:40pm 30.0 27.7 14.0 37 9.7 SSW 19 22 10 12 - - 0.0
06/04:30pm 30.0 27.6 13.7 37 9.8 SW 19 20 10 11 - - 0.0
06/04:20pm 30.1 27.4 13.6 36 9.9 SSW 20 26 11 14 - - 0.0
06/04:10pm 30.7 29.3 13.5 35 10.3 SW 13 17 7 9 - - 0.0
06/04:00pm 30.8 29.1 13.6 35 10.4 SW 15 19 8 10 - - 0.0
06/03:50pm 30.9 29.5 13.3 34 10.6 SSW 13 15 7 8 - - 0.0
06/03:40pm 30.8 29.8 13.4 34 10.5 SSW 11 15 6 8 - - 0.0
06/03:30pm 30.9 29.9 13.3 34 10.6 WSW 11 15 6 8 - - 0.0
06/03:20pm 31.3 29.2 13.6 34 10.7 W 17 20 9 11 - - 0.0
06/03:10pm 31.6 29.9 13.5 33 10.9 W 15 17 8 9 - - 0.0
06/03:00pm 31.5 30.1 13.4 33 10.9 WSW 13 19 7 10 - - 0.0
06/02:50pm 31.5 31.0 13.8 34 10.7 WSW 9 15 5 8 - - 0.0
06/02:40pm 31.5 31.5 14.1 34 10.6 SSE 7 11 4 6 - - 0.0
06/02:30pm 31.5 31.5 14.3 35 10.5 S 7 15 4 8 - - 0.0
06/02:20pm 30.9 30.5 14.0 35 10.3 SSW 9 15 5 8 - - 0.0
06/02:10pm 30.7 30.9 14.6 37 9.9 S 7 11 4 6 - - 0.0
06/02:00pm 30.8 30.9 14.4 36 10.0 SW 7 11 4 6 - - 0.0
06/01:50pm 30.8 30.1 14.4 36 10.0 SW 11 17 6 9 - - 0.0
06/01:40pm 31.3 31.0 14.3 35 10.4 S 9 13 5 7 - - 0.0
06/01:30pm 31.1 30.3 14.1 35 10.3 S 11 15 6 8 - - 0.0
06/01:20pm 30.9 30.6 14.5 37 10.0 SW 9 13 5 7 - - 0.0
06/01:10pm 30.8 29.8 14.5 37 10.0 SSW 13 17 7 9 - - 0.0
06/01:00pm 31.9 30.9 14.7 35 10.6 SW 13 20 7 11 - - 0.0
06/12:50pm 31.5 31.8 14.5 35 10.4 NE 6 11 3 6 - - 0.0
06/12:40pm 30.8 30.4 14.0 36 10.2 WSW 9 15 5 8 - - 0.0
06/12:30pm 30.6 30.7 14.4 37 9.9 S 7 11 4 6 - - 0.0
06/12:20pm 30.8 31.0 14.6 37 9.9 SE 7 9 4 5 - - 0.0
06/12:10pm 31.2 31.9 14.4 36 10.3 ESE 4 7 2 4 - - 0.0
06/12:00pm 30.6 30.3 14.5 37 9.8 SSW 9 13 5 7 - - 0.0
06/11:50am 30.3 29.7 14.6 38 9.6 SSE 11 13 6 7 - - 0.0
06/11:40am 31.0 31.4 14.8 37 10.0 ESE 6 9 3 5 - - 0.0
06/11:30am 30.1 30.1 15.2 40 9.2 S 9 11 5 6 - - 0.0
06/11:20am 30.0 30.5 14.9 39 9.3 SSE 6 15 3 8 - - 0.0
06/11:10am 29.5 29.7 14.8 40 9.0 E 7 9 4 5 - - 0.0
06/11:00am 30.1 30.5 15.2 40 9.2 ESE 7 13 4 7 - - 0.0
06/10:50am 29.6 29.2 15.3 41 8.8 S 11 15 6 8 - - 0.0
06/10:40am 29.6 30.2 15.7 43 8.6 SE 7 11 4 6 - - 0.0
06/10:30am 29.1 30.1 15.3 43 8.5 WNW 4 6 2 3 - - 0.0
06/10:20am 29.5 29.9 15.2 41 8.8 SW 7 11 4 6 - - 0.0
06/10:10am 29.1 30.1 15.3 43 8.5 SE 4 7 2 4 - - 0.0
06/10:00am 28.1 28.7 15.3 45 7.8 S 6 7 3 4 - - 0.0
06/09:50am 27.8 27.8 15.2 46 7.7 WNW 9 13 5 7 - - 0.0
06/09:40am 27.6 28.3 15.5 47 7.4 SSW 6 7 3 4 - - 0.0
06/09:30am 27.2 27.4 15.8 49 7.0 SW 9 13 5 7 - - 0.0
06/09:20am 26.9 27.2 16.0 51 6.7 W 9 13 5 7 - - 0.0
06/09:10am 26.5 26.7 15.8 51 6.6 WNW 9 13 5 7 - - 0.0
06/09:00am 26.2 26.8 15.8 52 6.4 WSW 7 13 4 7 - - 0.0
06/08:50am 25.9 26.0 15.6 53 6.3 WSW 9 11 5 6 - - 0.0
06/08:40am 25.5 26.1 15.8 55 5.9 WSW 7 11 4 6 - - 0.0
06/08:30am 25.1 25.2 15.6 55 5.8 WNW 9 15 5 8 - - 0.0
06/08:20am 25.0 25.7 15.6 56 5.7 NNW 6 9 3 5 - - 0.0
06/08:10am 24.8 25.5 16.1 58 5.3 WNW 7 11 4 6 - - 0.0
06/08:00am 24.5 25.9 16.3 60 5.0 W 4 6 2 3 - - 0.0
06/07:50am 23.9 25.2 16.2 62 4.7 WNW 4 6 2 3 - - 0.0
06/07:40am 23.1 24.2 16.6 67 4.0 NNW 6 7 3 4 - - 0.0
06/07:30am 22.8 24.2 16.4 67 3.9 NW 4 7 2 4 - - 0.0
06/07:20am 22.6 24.8 16.5 68 3.7 CALM 0 0 0 0 - - 0.0
06/07:10am 22.5 24.6 16.3 68 3.8 CALM 0 0 0 0 - - 0.0
06/07:00am 21.6 23.7 16.2 71 3.3 CALM 0 0 0 0 - - 0.0
06/06:50am 20.9 23.1 16.6 76 2.6 CALM 0 0 0 0 - - 0.0
06/06:40am 20.1 22.3 16.5 80 2.2 CALM 0 2 0 1 - - 0.0
06/06:30am 19.9 22.1 16.6 81 2.0 CALM 0 0 0 0 - - 0.0
06/06:20am 19.3 21.4 16.3 83 1.8 CALM 0 2 0 1 - - 0.0
06/06:10am 18.8 20.1 16.1 84 1.6 SSE 4 4 2 2 - - 0.0
06/06:00am 18.5 20.1 16.0 85 1.5 SSE 2 4 1 2 - - 0.0
06/05:50am 18.4 20.3 15.8 85 1.5 CALM 0 0 0 0 - - 0.0
06/05:40am 18.5 20.4 15.8 84 1.6 CALM 0 2 0 1 - - 0.0
06/05:30am 18.7 20.3 15.9 84 1.7 SW 2 2 1 1 - - 0.0
06/05:20am 18.9 20.5 15.9 83 1.8 SW 2 4 1 2 - - 0.0
06/05:10am 19.0 21.0 15.9 82 1.8 CALM 0 2 0 1 - - 0.0
06/05:00am 19.2 20.7 15.8 81 2.0 NW 2 2 1 1 - - 0.0
06/04:50am 19.3 20.5 15.9 81 2.0 NW 4 4 2 2 - - 0.0
06/04:40am 19.4 20.6 16.0 81 2.0 N 4 4 2 2 - - 0.0
06/04:30am 19.3 20.6 16.1 82 1.9 NNW 4 4 2 2 - - 0.0
06/04:20am 19.3 21.0 16.1 82 1.9 NNW 2 2 1 1 - - 0.0
06/04:10am 19.4 21.4 16.1 81 2.0 CALM 0 2 0 1 - - 0.0
06/04:00am 19.3 21.3 16.1 82 1.9 CALM 0 2 0 1 - - 0.0
06/03:50am 19.1 21.1 16.0 82 1.9 CALM 0 2 0 1 - - 0.0
06/03:40am 19.1 20.7 15.9 82 1.9 NW 2 4 1 2 - - 0.0
06/03:30am 19.0 20.6 16.0 83 1.8 NW 2 4 1 2 - - 0.0
06/03:20am 19.0 20.2 15.9 82 1.8 NW 4 4 2 2 - - 0.0
06/03:10am 19.1 20.3 15.9 82 1.9 NNW 4 4 2 2 - - 0.0
06/03:00am 19.1 20.3 15.9 82 1.9 NNW 4 4 2 2 - - 0.0
06/02:50am 19.3 20.6 16.1 82 1.9 NNW 4 4 2 2 - - 0.0
06/02:40am 19.4 21.1 16.1 81 2.0 N 2 4 1 2 - - 0.0
06/02:30am 19.3 21.0 16.2 82 1.9 N 2 4 1 2 - - 0.0
06/02:20am 19.3 21.0 16.2 82 1.9 NNW 2 4 1 2 - - 0.0
06/02:10am 19.5 20.4 16.2 81 2.0 NW 6 6 3 3 - - 0.0
06/02:00am 19.8 21.2 16.3 80 2.1 NW 4 6 2 3 - - 0.0
06/01:50am 20.0 21.3 16.2 79 2.3 NNW 4 6 2 3 - - 0.0
06/01:40am 20.5 21.8 16.2 76 2.6 WNW 4 6 2 3 - - 0.0
06/01:30am 20.6 22.0 16.3 76 2.6 WNW 4 6 2 3 - - 0.0
06/01:20am 21.1 23.2 16.2 73 3.0 CALM 0 4 0 2 - - 0.0
06/01:10am 21.2 23.3 16.2 73 3.0 CALM 0 0 0 0 - - 0.0
06/01:00am 21.3 23.4 16.2 72 3.1 CALM 0 4 0 2 - - 0.0
06/12:50am 21.4 22.8 16.3 72 3.1 SW 4 6 2 3 - - 0.0
06/12:40am 21.5 22.4 16.1 71 3.3 SW 6 7 3 4 - - 0.0
06/12:30am 21.3 21.7 16.2 72 3.1 SSW 9 9 5 5 - - 0.0
06/12:20am 21.2 22.0 16.3 73 3.0 SSW 7 9 4 5 - - 0.0
06/12:10am 21.3 22.2 16.2 72 3.1 SSW 6 7 3 4 - - 0.0
06/12:00am 21.4 22.6 15.9 71 3.3 S 4 7 2 4 - - 0.0
 
Date/Time
EST
Temp
°C
App
Temp
°C
Dew
Point
°C
Rel
Hum
%
Delta-T
°C
Wind Press
QNH
hPa
Press
MSL
hPa
Rain since
9am
mm
Dir  Spd
km/h
Gust
km/h
Spd
kts
Gust
kts
05/11:50pm 21.3 22.5 15.9 71 3.3 SSW 4 4 2 2 - - 0.0
05/11:40pm 21.4 22.6 16.0 71 3.3 SW 4 4 2 2 - - 0.0
05/11:30pm 21.3 23.0 16.1 72 3.1 WSW 2 4 1 2 - - 0.0
05/11:20pm 21.3 22.7 16.3 73 3.0 SW 4 4 2 2 - - 0.0
05/11:10pm 21.4 22.8 16.3 72 3.1 S 4 6 2 3 - - 0.0
05/11:00pm 21.6 23.0 16.4 72 3.2 SSW 4 6 2 3 - - 0.0
05/10:50pm 21.9 23.2 16.1 69 3.5 WSW 4 6 2 3 - - 0.0
05/10:40pm 22.0 23.3 16.1 69 3.6 W 4 4 2 2 - - 0.0
05/10:30pm 22.0 23.3 16.1 69 3.6 W 4 4 2 2 - - 0.0
05/10:20pm 22.1 23.4 16.2 69 3.6 W 4 4 2 2 - - 0.0
05/10:10pm 22.0 24.1 16.3 70 3.5 CALM 0 0 0 0 - - 0.0
05/10:00pm 22.0 23.7 16.1 69 3.6 SW 2 4 1 2 - - 0.0
05/09:50pm 22.1 23.4 16.2 69 3.6 SW 4 4 2 2 - - 0.0
05/09:40pm 22.1 23.0 16.1 69 3.6 SSW 6 6 3 3 - - 0.0
05/09:30pm 22.2 23.1 16.1 68 3.7 SSW 6 6 3 3 - - 0.0
05/09:20pm 22.3 23.2 16.2 68 3.7 SW 6 7 3 4 - - 0.0
05/09:10pm 22.5 23.2 16.1 67 3.9 SW 7 9 4 5 - - 0.0
05/09:00pm 22.7 23.3 15.9 65 4.1 SW 7 7 4 4 - - 0.0
05/08:50pm 22.8 23.4 15.9 65 4.2 WSW 7 9 4 5 - - 0.0
05/08:40pm 22.8 23.4 15.9 65 4.2 SW 7 9 4 5 - - 0.0
05/08:30pm 22.9 22.7 15.8 64 4.3 SW 11 13 6 7 - - 0.0
05/08:20pm 23.1 22.6 15.8 63 4.4 SW 13 15 7 8 - - 0.0
05/08:10pm 23.2 22.3 15.8 63 4.5 SW 15 15 8 8 - - 0.0
05/08:00pm 23.5 22.2 15.7 61 4.7 SW 17 20 9 11 - - 0.0
05/07:50pm 23.7 22.3 15.6 60 4.9 SW 17 19 9 10 - - 0.0
05/07:40pm 23.9 22.9 15.6 59 5.0 SSW 15 17 8 9 - - 0.0
05/07:30pm 24.1 23.1 15.6 59 5.2 SW 15 17 8 9 - - 0.0
05/07:20pm 24.2 22.4 15.5 58 5.3 SSW 19 19 10 10 - - 0.0
05/07:10pm 24.4 22.6 15.5 57 5.4 SSW 19 24 10 13 - - 0.0
05/07:00pm 24.6 22.8 15.4 56 5.6 SSW 19 22 10 12 - - 0.0
05/06:50pm 24.9 23.4 15.3 55 5.8 SSW 17 20 9 11 - - 0.0
05/06:40pm 25.2 23.4 15.4 54 5.9 SSW 19 20 10 11 - - 0.0
05/06:30pm 25.5 23.7 15.5 54 6.1 SSW 19 20 10 11 - - 0.0
05/06:20pm 25.7 23.8 15.2 52 6.4 SSW 19 22 10 12 - - 0.0
05/06:10pm 26.1 23.9 15.0 50 6.7 SSW 20 22 11 12 - - 0.0
05/06:00pm 26.6 24.6 15.0 49 7.0 SSW 19 22 10 12 - - 0.0
05/05:50pm 27.1 25.3 14.5 46 7.6 SSW 17 19 9 10 - - 0.0
05/05:40pm 27.3 25.8 14.3 45 7.8 SSW 15 19 8 10 - - 0.0
05/05:30pm 27.6 25.7 14.1 43 8.1 SSW 17 19 9 10 - - 0.0
05/05:20pm 28.0 26.4 14.0 42 8.4 WSW 15 17 8 9 - - 0.0
05/05:10pm 28.3 27.0 13.7 40 8.7 WSW 13 15 7 8 - - 0.0
05/05:00pm 28.4 27.5 13.6 40 8.8 SW 11 15 6 8 - - 0.0
05/04:50pm 28.6 27.7 13.6 39 9.0 WSW 11 13 6 7 - - 0.0
05/04:40pm 28.9 28.7 13.5 38 9.2 WSW 7 11 4 6 - - 0.0
05/04:30pm 29.0 28.1 12.6 36 9.7 SW 9 13 5 7 - - 0.0
05/04:20pm 29.1 28.7 13.1 37 9.5 SSW 7 9 4 5 - - 0.0
05/04:10pm 29.2 28.9 13.3 37 9.5 WSW 7 9 4 5 - - 0.0
05/04:00pm 29.1 28.4 13.1 37 9.5 WSW 9 13 5 7 - - 0.0
05/03:50pm 29.3 28.9 13.1 37 9.6 SSW 7 13 4 7 - - 0.0
05/03:40pm 29.2 28.9 13.2 37 9.5 SW 7 9 4 5 - - 0.0
05/03:30pm 29.4 28.2 12.8 36 9.8 WSW 11 13 6 7 - - 0.0
05/03:20pm 29.4 28.7 13.3 37 9.6 SW 9 11 5 6 - - 0.0
05/03:10pm 29.3 28.6 13.1 37 9.6 WSW 9 13 5 7 - - 0.0
05/03:00pm 29.0 27.6 13.3 38 9.4 SSW 13 17 7 9 - - 0.0
05/02:50pm 29.1 28.1 13.3 37 9.4 SW 11 17 6 9 - - 0.0
05/02:40pm 29.0 27.9 13.0 37 9.5 SW 11 13 6 7 - - 0.0
05/02:30pm 29.5 29.1 13.1 36 9.8 W 7 9 4 5 - - 0.0
05/02:20pm 29.8 29.1 13.2 36 9.9 WSW 9 13 5 7 - - 0.0
05/02:10pm 29.7 28.9 13.0 35 9.9 SW 9 13 5 7 - - 0.0
05/02:00pm 29.0 27.2 13.3 38 9.4 SW 15 20 8 11 - - 0.0
05/01:50pm 28.9 28.0 13.6 39 9.2 SSW 11 15 6 8 - - 0.0
05/01:40pm 29.2 28.1 13.2 37 9.5 W 11 13 6 7 - - 0.0
05/01:30pm 29.2 28.5 13.1 37 9.6 SSW 9 15 5 8 - - 0.0
05/01:20pm 29.7 28.8 13.8 37 9.6 WSW 11 15 6 8 - - 0.0
05/01:10pm 28.8 28.2 13.4 38 9.2 WSW 9 13 5 7 - - 0.0
05/01:00pm 29.0 28.1 13.6 38 9.2 WSW 11 19 6 10 - - 0.0
05/12:50pm 29.2 28.3 13.6 38 9.3 WSW 11 17 6 9 - - 0.0
05/12:40pm 29.4 29.3 13.8 38 9.4 SSW 7 11 4 6 - - 0.0
05/12:30pm 29.1 28.4 13.3 37 9.4 SW 9 15 5 8 - - 0.0
05/12:20pm 28.7 28.1 13.5 39 9.1 NW 9 15 5 8 - - 0.0
05/12:10pm 28.6 27.3 13.8 40 8.9 W 13 15 7 8 - - 0.0
05/12:00pm 28.3 27.4 13.8 41 8.7 S 11 15 6 8 - - 0.0
05/11:50am 28.7 27.4 13.7 39 9.0 WSW 13 17 7 9 - - 0.0
05/11:40am 28.4 27.0 13.5 40 8.9 WSW 13 19 7 10 - - 0.0
05/11:30am 28.1 27.6 13.9 41 8.5 W 9 15 5 8 - - 0.0
05/11:20am 27.9 27.8 13.8 42 8.4 WSW 7 11 4 6 - - 0.0
05/11:10am 27.8 27.6 13.6 41 8.5 SSW 7 11 4 6 - - 0.0
05/11:00am 27.8 27.7 13.9 42 8.3 WSW 7 13 4 7 - - 0.0
05/10:50am 26.8 26.7 14.0 45 7.6 SSW 7 11 4 6 - - 0.0
05/10:40am 26.5 26.8 15.1 49 6.9 NE 7 11 4 6 - - 0.0
05/10:30am 26.0 26.2 14.6 49 6.8 W 7 11 4 6 - - 0.0
05/10:20am 25.9 25.6 14.5 49 6.8 SW 9 13 5 7 - - 0.0
05/10:10am 25.4 25.7 14.9 52 6.3 S 7 11 4 6 - - 0.0
05/10:00am 24.5 24.8 14.9 55 5.8 W 7 11 4 6 - - 0.0
05/09:50am 24.1 24.3 14.6 55 5.7 NW 7 9 4 5 - - 0.0
05/09:40am 23.6 23.9 14.9 58 5.2 WNW 7 11 4 6 - - 0.0
05/09:30am 23.4 24.1 14.6 57 5.2 NNW 4 7 2 4 - - 0.0
05/09:20am 23.0 23.5 14.9 60 4.8 NNE 6 7 3 4 - - 0.0
05/09:10am 22.9 23.3 14.8 60 4.8 N 6 7 3 4 - - 0.0
05/09:00am 22.7 23.5 14.9 61 4.6 NE 4 6 2 3 - - 0.0
05/08:50am 22.4 23.2 14.9 62 4.5 N 4 7 2 4 - - 0.0
05/08:40am 22.3 23.1 14.8 62 4.5 N 4 6 2 3 - - 0.0
05/08:30am 22.1 22.5 14.8 63 4.3 N 6 7 3 4 - - 0.0
05/08:20am 21.8 22.2 14.8 64 4.1 NNW 6 6 3 3 - - 0.0
05/08:00am 21.5 21.9 14.8 65 4.0 NNW 6 7 3 4 - - 0.0
05/07:50am 21.2 21.6 14.7 66 3.8 WNW 6 6 3 3 - - 0.0
05/07:40am 21.0 21.4 14.7 67 3.7 WNW 6 6 3 3 - - 0.0
05/07:30am 20.7 21.0 14.9 69 3.4 WNW 7 7 4 4 - - 0.0
05/07:20am 20.4 20.6 14.7 70 3.4 NW 7 7 4 4 - - 0.0
05/07:10am 20.1 20.5 14.7 71 3.2 NW 6 6 3 3 - - 0.0
05/07:00am 19.7 20.5 14.7 73 2.9 NNW 4 6 2 3 - - 0.0
05/06:50am 19.8 21.3 14.6 72 3.0 CALM 0 0 0 0 - - 0.0
05/06:40am 18.9 20.5 14.8 77 2.4 CALM 0 0 0 0 - - 0.0
05/06:30am 18.2 19.7 14.6 79 2.1 CALM 0 0 0 0 - - 0.0
05/06:20am 17.9 19.4 14.6 81 1.9 CALM 0 0 0 0 - - 0.0
05/06:10am 17.5 18.9 14.5 82 1.7 CALM 0 2 0 1 - - 0.0
05/06:00am 17.0 18.3 14.2 83 1.6 CALM 0 0 0 0 - - 0.0
05/05:50am 16.8 18.1 14.1 84 1.5 CALM 0 2 0 1 - - 0.0
05/05:40am 16.7 17.2 14.0 84 1.5 WSW 4 6 2 3 - - 0.0
05/05:30am 16.9 17.4 14.0 83 1.7 SW 4 4 2 2 - - 0.0
05/05:20am 17.0 17.9 14.0 82 1.7 SW 2 4 1 2 - - 0.0
05/05:10am 17.2 18.1 14.1 82 1.8 SW 2 2 1 1 - - 0.0
05/05:00am 17.2 18.1 14.1 82 1.8 WSW 2 4 1 2 - - 0.0
05/04:50am 17.3 18.2 14.1 81 1.8 W 2 4 1 2 - - 0.0
05/04:40am 17.4 18.3 14.0 80 1.9 SW 2 2 1 1 - - 0.0
05/04:30am 17.5 18.8 14.1 80 2.0 CALM 0 2 0 1 - - 0.0
05/04:20am 17.3 18.2 14.0 81 1.9 WSW 2 2 1 1 - - 0.0
05/04:10am 17.2 17.7 13.9 81 1.9 NW 4 6 2 3 - - 0.0
05/04:00am 17.2 17.6 13.8 80 1.9 NNW 4 6 2 3 - - 0.0
05/03:50am 17.4 17.5 13.9 80 2.0 NNW 6 7 3 4 - - 0.0
05/03:40am 17.6 18.1 14.0 79 2.1 N 4 6 2 3 - - 0.0
05/03:30am 17.9 18.1 14.1 78 2.2 NNW 6 6 3 3 - - 0.0
05/03:20am 18.0 18.2 14.2 78 2.2 NNW 6 6 3 3 - - 0.0
05/03:10am 18.1 18.7 14.2 78 2.2 N 4 6 2 3 - - 0.0
05/03:00am 18.1 19.5 14.3 78 2.2 CALM 0 0 0 0 - - 0.0
05/02:50am 18.3 19.7 14.3 77 2.3 CALM 0 4 0 2 - - 0.0
05/02:40am 18.4 18.6 14.3 77 2.4 NNW 6 6 3 3 - - 0.0
05/02:30am 18.6 18.8 14.3 76 2.5 NNW 6 6 3 3 - - 0.0
05/02:20am 18.7 18.8 14.5 76 2.4 NW 7 7 4 4 - - 0.0
05/02:10am 18.9 19.0 14.4 75 2.6 NNW 7 7 4 4 - - 0.0
05/02:00am 18.9 19.0 14.4 75 2.6 NNW 7 7 4 4 - - 0.0
05/01:50am 18.8 18.9 14.4 75 2.6 N 7 7 4 4 - - 0.0
05/01:40am 18.6 18.6 14.3 76 2.5 NNW 7 7 4 4 - - 0.0
05/01:30am 18.6 18.6 14.3 76 2.5 NNW 7 7 4 4 - - 0.0
05/01:20am 18.3 18.5 14.3 77 2.3 NNW 6 7 3 4 - - 0.0
05/01:10am 18.2 19.1 14.1 77 2.4 N 2 6 1 3 - - 0.0
05/01:00am 18.4 19.3 14.1 76 2.5 N 2 4 1 2 - - 0.0
05/12:50am 18.2 19.1 14.1 77 2.4 NW 2 4 1 2 - - 0.0
05/12:40am 17.9 18.8 13.9 77 2.3 NNE 2 4 1 2 - - 0.0
05/12:30am 18.2 19.4 13.7 75 2.6 CALM 0 2 0 1 - - 0.0
05/12:20am 18.5 19.8 14.0 75 2.6 CALM 0 0 0 0 - - 0.0
05/12:10am 18.9 19.9 14.2 74 2.7 SSE 2 4 1 2 - - 0.0
05/12:00am 19.2 19.8 14.2 73 2.9 WSW 4 4 2 2 - - 0.0
 
Date/Time
EST
Temp
°C
App
Temp
°C
Dew
Point
°C
Rel
Hum
%
Delta-T
°C
Wind Press
QNH
hPa
Press
MSL
hPa
Rain since
9am
mm
Dir  Spd
km/h
Gust
km/h
Spd
kts
Gust
kts
04/11:50pm 19.5 20.1 14.2 71 3.1 WNW 4 6 2 3 - - 0.0
04/11:40pm 19.3 19.4 14.0 71 3.1 NW 6 6 3 3 - - 0.0
04/11:30pm 18.9 19.4 13.9 73 2.9 NNW 4 6 2 3 - - 0.0
04/11:20pm 18.9 19.3 13.8 72 2.9 NNW 4 6 2 3 - - 0.0
04/11:10pm 18.9 19.3 13.8 72 2.9 N 4 6 2 3 - - 0.0
04/11:00pm 19.5 20.0 13.9 70 3.2 NNW 4 6 2 3 - - 0.0
04/10:50pm 20.1 20.3 14.2 69 3.4 W 6 6 3 3 - - 0.0
04/10:40pm 20.1 20.3 14.2 69 3.4 WSW 6 6 3 3 - - 0.0
04/10:30pm 20.2 20.4 14.2 68 3.5 WSW 6 7 3 4 - - 0.0
04/10:20pm 20.4 20.6 14.1 67 3.7 WSW 6 7 3 4 - - 0.0
04/10:10pm 20.8 20.8 14.1 65 3.9 SW 7 9 4 5 - - 0.0
04/10:00pm 21.2 21.1 14.0 63 4.2 SW 7 7 4 4 - - 0.0
04/09:50pm 21.6 21.5 14.0 62 4.4 WSW 7 9 4 5 - - 0.0
04/09:40pm 21.8 22.0 14.1 61 4.5 WSW 6 7 3 4 - - 0.0
04/09:30pm 22.0 22.2 14.1 61 4.6 WSW 6 7 3 4 - - 0.0
04/09:00pm 22.3 21.4 13.8 58 5.0 WSW 11 13 6 7 - - 0.0
04/08:40pm 22.3 21.4 13.7 58 5.0 WSW 11 13 6 7 - - 0.0
04/08:30pm 22.4 21.5 13.7 58 5.1 WSW 11 13 6 7 - - 0.0
04/08:20pm 22.6 21.3 13.7 57 5.2 WSW 13 17 7 9 - - 0.0
04/08:10pm 22.7 21.8 13.7 56 5.3 WSW 11 15 6 8 - - 0.0
04/08:00pm 22.8 21.2 13.8 57 5.3 WSW 15 19 8 10 - - 0.0
04/07:50pm 22.9 20.8 13.7 56 5.4 WSW 17 19 9 10 - - 0.0
04/07:40pm 22.9 20.8 13.7 56 5.4 WSW 17 19 9 10 - - 0.0
04/07:30pm 22.9 22.0 13.8 56 5.3 WSW 11 17 6 9 - - 0.0
04/07:20pm 23.2 22.4 13.9 56 5.5 WSW 11 15 6 8 - - 0.0
04/07:10pm 23.4 22.1 13.8 54 5.6 SW 13 17 7 9 - - 0.0
04/07:00pm 23.5 21.8 13.7 54 5.7 SW 15 15 8 8 - - 0.0
04/06:50pm 23.7 22.1 13.8 53 5.8 SW 15 17 8 9 - - 0.0
04/06:40pm 23.8 22.2 13.8 53 5.9 SW 15 15 8 8 - - 0.0
04/06:30pm 24.0 22.0 13.9 53 5.9 SW 17 19 9 10 - - 0.0
04/06:20pm 24.3 22.3 13.9 52 6.1 WSW 17 19 9 10 - - 0.0
04/06:10pm 24.6 22.6 14.0 51 6.3 WSW 17 19 9 10 - - 0.0
04/06:00pm 24.9 22.9 14.0 50 6.5 WSW 17 20 9 11 - - 0.0
04/05:50pm 25.1 22.7 13.9 49 6.6 SW 19 22 10 12 - - 0.0
04/05:40pm 25.5 23.2 14.0 49 6.8 SW 19 20 10 11 - - 0.0
04/05:30pm 25.9 23.3 13.9 47 7.1 SW 20 22 11 12 - - 0.0
04/05:20pm 26.4 24.4 14.0 46 7.4 SW 17 19 9 10 - - 0.0
04/05:10pm 26.6 24.3 14.0 46 7.5 WSW 19 22 10 12 - - 0.0
04/05:00pm 26.9 24.7 14.3 46 7.6 WSW 19 24 10 13 - - 0.0
04/04:50pm 27.1 24.7 14.3 45 7.7 WSW 20 24 11 13 - - 0.0
04/04:40pm 27.3 25.1 14.3 45 7.8 WSW 19 24 10 13 - - 0.0
04/04:30pm 27.4 24.6 14.3 44 7.9 WSW 22 28 12 15 - - 0.0
04/04:20pm 27.7 24.5 14.3 43 8.1 WSW 24 26 13 14 - - 0.0
04/04:10pm 28.9 26.5 14.3 40 8.8 WSW 20 24 11 13 - - 0.0
04/04:00pm 28.8 26.3 14.2 40 8.8 SW 20 22 11 12 - - 0.0
04/03:50pm 28.9 27.0 14.2 40 8.9 SW 17 20 9 11 - - 0.0
04/03:40pm 29.1 27.5 14.0 39 9.1 SW 15 19 8 10 - - 0.0
04/03:30pm 29.3 27.0 14.1 39 9.2 SW 19 22 10 12 - - 0.0
04/03:20pm 29.8 27.5 14.1 38 9.5 SW 19 22 10 12 - - 0.0
04/03:10pm 29.2 26.9 14.1 39 9.1 SSW 19 22 10 12 - - 0.0
04/03:00pm 29.7 27.3 13.9 38 9.5 SW 19 24 10 13 - - 0.0
04/02:50pm 29.6 28.1 14.2 39 9.3 SW 15 22 8 12 - - 0.0
04/02:40pm 29.6 28.1 14.1 38 9.4 SW 15 17 8 9 - - 0.0
04/02:30pm 29.7 27.6 13.5 37 9.7 WSW 17 24 9 13 - - 0.0
04/02:20pm 29.7 28.1 13.9 38 9.5 SSW 15 19 8 10 - - 0.0
04/02:10pm 29.7 28.5 14.0 38 9.5 SSW 13 22 7 12 - - 0.0
04/02:00pm 29.9 27.9 14.0 37 9.6 SSW 17 19 9 10 - - 0.0
04/01:50pm 30.5 29.3 14.1 36 10.0 SSW 13 20 7 11 - - 0.0
04/01:40pm 30.7 29.1 13.8 35 10.2 SSW 15 19 8 10 - - 0.0
04/01:30pm 30.7 29.1 13.9 36 10.2 SSW 15 22 8 12 - - 0.0
04/01:20pm 30.4 28.5 14.3 37 9.8 SSW 17 20 9 11 - - 0.0
04/01:10pm 30.6 28.4 14.4 37 9.9 SSW 19 20 10 11 - - 0.0
04/01:00pm 30.8 28.9 14.2 36 10.1 SSW 17 20 9 11 - - 0.0
04/12:50pm 29.9 28.0 14.3 38 9.5 SSW 17 22 9 12 - - 0.0
04/12:40pm 29.8 28.4 14.5 39 9.3 SSW 15 20 8 11 - - 0.0
04/12:30pm 29.7 28.2 14.1 38 9.4 S 15 19 8 10 - - 0.0
04/12:20pm 29.9 28.4 14.1 38 9.6 SSW 15 20 8 11 - - 0.0
04/12:10pm 29.9 27.9 13.9 37 9.7 SSW 17 22 9 12 - - 0.0
04/12:00pm 29.6 28.5 14.2 39 9.3 S 13 20 7 11 - - 0.0
04/11:50am 29.3 28.6 14.4 40 9.0 SSW 11 17 6 9 - - 0.0
04/11:40am 29.9 28.5 14.4 38 9.4 SW 15 20 8 11 - - 0.0
04/11:30am 29.3 28.5 15.1 42 8.7 SSW 13 19 7 10 - - 0.0
04/11:20am 28.7 27.3 14.6 42 8.6 SSW 15 22 8 12 - - 0.0
04/11:10am 28.7 27.2 14.2 41 8.8 S 15 20 8 11 - - 0.0
04/11:00am 28.9 27.0 14.1 40 8.9 SW 17 22 9 12 - - 0.0
04/10:50am 28.8 27.0 14.4 41 8.7 SW 17 19 9 10 - - 0.0
04/10:40am 28.4 27.4 14.7 43 8.3 SSW 13 17 7 9 - - 0.0
04/10:30am 28.2 27.6 14.7 43 8.2 SSW 11 17 6 9 - - 0.0
04/10:20am 27.4 26.1 14.8 46 7.6 SW 15 20 8 11 - - 0.0
04/10:10am 27.1 26.3 15.1 47 7.3 SW 13 19 7 10 - - 0.0
04/10:00am 27.8 26.1 14.8 45 7.9 SW 17 20 9 11 - - 0.0
04/09:50am 27.2 26.3 14.9 47 7.5 W 13 17 7 9 - - 0.0
04/09:40am 26.7 25.4 14.7 47 7.2 WSW 15 17 8 9 - - 0.0
04/09:30am 26.4 25.8 14.6 48 7.1 WSW 11 15 6 8 - - 0.0
04/09:20am 26.5 25.5 14.7 48 7.1 W 13 17 7 9 - - 0.0
04/09:10am 26.7 26.1 14.7 47 7.2 W 11 17 6 9 - - 0.0
04/09:00am 26.1 25.1 14.6 49 6.9 WSW 13 19 7 10 - - 0.0
04/08:50am 25.9 25.2 14.4 49 6.9 W 11 17 6 9 - - 0.0
04/08:40am 25.8 24.9 14.8 50 6.6 W 13 19 7 10 - - 0.0
04/08:30am 25.4 24.8 14.7 51 6.4 SSW 11 13 6 7 - - 0.0
04/08:20am 24.8 24.3 15.0 54 5.9 SSW 11 13 6 7 - - 0.0
04/08:10am 25.0 24.8 14.8 53 6.1 WSW 9 15 5 8 - - 0.0
04/08:00am 24.4 24.8 15.2 56 5.5 SW 7 11 4 6 - - 0.0
04/07:50am 24.0 24.4 15.2 58 5.3 SW 7 13 4 7 - - 0.0
04/07:40am 23.6 23.7 15.4 60 4.9 SW 9 11 5 6 - - 0.0
04/07:30am 23.3 24.4 15.6 62 4.7 SW 4 7 2 4 - - 0.0
04/07:20am 22.5 24.0 15.8 66 4.0 SSW 2 4 1 2 - - 0.0
04/07:10am 22.4 23.6 15.8 66 4.0 SW 4 6 2 3 - - 0.0
04/07:00am 22.4 23.9 15.7 66 4.0 WSW 2 4 1 2 - - 0.0
04/06:50am 21.6 23.6 15.9 70 3.4 CALM 0 0 0 0 - - 0.0
04/06:40am 20.3 22.5 16.4 78 2.4 CALM 0 0 0 0 - - 0.0
04/06:30am 19.8 21.9 16.3 80 2.1 CALM 0 0 0 0 - - 0.0
04/06:20am 19.7 21.7 16.0 79 2.2 CALM 0 0 0 0 - - 0.0
04/06:10am 19.4 21.3 15.8 80 2.1 CALM 0 0 0 0 - - 0.0
04/06:00am 18.9 20.5 15.9 83 1.8 E 2 2 1 1 - - 0.0
04/05:50am 18.8 20.7 15.7 82 1.8 CALM 0 2 0 1 - - 0.0
04/05:40am 19.4 21.2 15.4 77 2.4 CALM 0 2 0 1 - - 0.0
04/05:30am 19.5 21.5 15.9 80 2.2 CALM 0 0 0 0 - - 0.0
04/05:20am 19.3 20.5 15.9 81 2.0 NW 4 4 2 2 - - 0.0
04/05:10am 19.5 20.6 15.7 78 2.3 NNW 4 4 2 2 - - 0.0
04/05:00am 20.1 20.8 15.7 76 2.6 NW 6 6 3 3 - - 0.0
04/04:50am 20.5 22.0 15.7 74 2.9 W 2 4 1 2 - - 0.0
04/04:40am 20.5 22.4 15.8 74 2.8 CALM 0 4 0 2 - - 0.0
04/04:30am 20.9 22.0 15.6 71 3.2 WNW 4 4 2 2 - - 0.0
04/04:20am 20.7 21.8 15.7 73 3.0 WNW 4 4 2 2 - - 0.0
04/04:10am 20.8 22.0 15.8 73 3.0 SW 4 6 2 3 - - 0.0
04/04:00am 20.8 21.4 15.7 72 3.1 SW 7 9 4 5 - - 0.0
04/03:50am 20.5 21.2 15.7 74 2.9 SW 6 7 3 4 - - 0.0
04/03:40am 20.8 21.3 15.6 72 3.1 SW 7 9 4 5 - - 0.0
04/03:30am 20.6 21.3 15.7 73 2.9 W 6 7 3 4 - - 0.0
04/03:20am 20.2 21.0 15.8 76 2.6 W 6 6 3 3 - - 0.0
04/03:10am 20.5 21.3 15.8 74 2.8 WSW 6 6 3 3 - - 0.0
04/03:00am 20.0 21.4 15.4 75 2.7 N 2 4 1 2 - - 0.0
04/02:50am 20.6 21.6 15.4 72 3.1 WNW 4 4 2 2 - - 0.0
04/02:40am 20.6 21.6 15.4 72 3.1 W 4 6 2 3 - - 0.0
04/02:30am 20.5 21.1 15.3 72 3.1 W 6 6 3 3 - - 0.0
04/02:20am 20.7 21.3 15.4 71 3.2 W 6 7 3 4 - - 0.0
04/02:10am 20.8 21.4 15.3 71 3.3 W 6 7 3 4 - - 0.0
04/02:00am 21.0 21.6 15.4 70 3.3 W 6 7 3 4 - - 0.0
04/01:50am 21.2 22.2 15.4 69 3.5 W 4 6 2 3 - - 0.0
04/01:40am 21.2 23.0 15.6 70 3.4 CALM 0 2 0 1 - - 0.0
04/01:30am 21.4 22.6 15.8 70 3.4 SSW 4 6 2 3 - - 0.0
04/01:20am 21.8 22.4 15.9 69 3.6 SW 7 9 4 5 - - 0.0
04/01:10am 22.1 22.3 15.8 67 3.8 WSW 9 11 5 6 - - 0.0
04/01:00am 22.1 22.9 15.9 68 3.7 W 6 7 3 4 - - 0.0
04/12:50am 21.8 23.1 16.2 70 3.4 W 4 6 2 3 - - 0.0
04/12:40am 21.9 22.9 16.3 70 3.4 WSW 6 6 3 3 - - 0.0
04/12:30am 22.1 23.1 16.4 70 3.5 SW 6 6 3 3 - - 0.0
04/12:20am 22.2 23.2 16.4 69 3.5 SSW 6 6 3 3 - - 0.0
04/12:10am 22.3 23.7 16.5 69 3.5 SSW 4 6 2 3 - - 0.0
04/12:00am 22.5 23.5 16.3 68 3.8 SW 6 9 3 5 - - 0.0
 
Date/Time
EST
Temp
°C
App
Temp
°C
Dew
Point
°C
Rel
Hum
%
Delta-T
°C
Wind Press
QNH
hPa
Press
MSL
hPa
Rain since
9am
mm
Dir  Spd
km/h
Gust
km/h
Spd
kts
Gust
kts
03/11:50pm 22.6 23.3 16.1 66 3.9 W 7 9 4 5 - - 0.0
03/11:40pm 22.5 23.4 16.2 67 3.8 W 6 6 3 3 - - 0.0
03/11:30pm 22.6 23.5 16.2 67 3.9 WSW 6 7 3 4 - - 0.0
03/11:20pm 22.6 23.5 16.0 66 4.0 WSW 6 6 3 3 - - 0.0
03/11:10pm 22.6 23.3 16.1 66 3.9 W 7 9 4 5 - - 0.0
03/11:00pm 22.6 23.3 16.0 66 4.0 WSW 7 7 4 4 - - 0.0

Other formats

Comma delimited format used in spreadsheet applications
http://www.bom.gov.au/fwo/IDQ60801/IDQ60801.99115.axf

JavaScript Object Notation format (JSON) in row-major order
http://www.bom.gov.au/fwo/IDQ60801/IDQ60801.99115.json

Data quality

Most of these data are generated automatically and are frequently updated. Quality checks on data are not normally performed. It is possible for incorrect values to appear. Refer to information at About Latest Weather Observations and please check the disclaimer before using these data.